Time;durP1;ratioP1;P1;durP2;ratioP2;P2;SDS_P1;SDS_P2;PMS_P1;PMS_P2;Temp;Humidity;BMP_temperature;BMP_pressure;BME280_temperature;BME280_humidity;BME280_pressure;Samples;Min_cycle;Max_cycle;Signal;HPM_P1;HPM_P2
2022/03/27 00:01:42;;;;;;;4.47;3.92;;;;;;;20.18;34.40;98006.09;10293414;28;20065;-60
2022/03/27 00:07:01;;;;;;;5.03;4.35;;;;;;;20.18;34.50;98014.19;10292422;28;20070;-60
2022/03/27 00:12:21;;;;;;;5.50;3.97;;;;;;;20.18;34.52;98008.78;10304009;28;20054;-60
2022/03/27 00:17:40;;;;;;;4.45;4.05;;;;;;;20.18;34.61;98014.19;10291235;28;20046;-58
2022/03/27 00:22:59;;;;;;;5.20;4.70;;;;;;;20.19;34.69;98015.81;10296678;28;20055;-60
2022/03/27 00:28:18;;;;;;;5.20;4.70;;;;;;;20.17;34.76;98009.91;10277084;28;20055;-60
2022/03/27 00:33:39;;;;;;;5.28;4.78;;;;;;;20.16;34.81;98011.00;10291835;28;20069;-60
2022/03/27 00:38:59;;;;;;;5.40;4.90;;;;;;;20.16;34.93;98008.28;10305106;28;20679;-60
2022/03/27 00:44:19;;;;;;;5.50;4.70;;;;;;;20.14;35.07;98015.91;10305051;28;20043;-60
2022/03/27 00:49:38;;;;;;;6.45;4.68;;;;;;;20.15;35.03;98014.81;10292286;28;20069;-59
2022/03/27 00:54:58;;;;;;;5.82;4.65;;;;;;;20.12;35.13;98013.50;10290663;28;20051;-60
2022/03/27 01:00:36;;;;;;;5.28;4.78;;;;;;;20.11;35.25;98014.59;10294512;28;20039;-60
2022/03/27 01:05:59;;;;;;;5.73;5.13;;;;;;;20.11;35.41;98013.78;10265057;28;20619;-60
2022/03/27 01:11:21;;;;;;;7.28;5.20;;;;;;;20.10;35.39;98014.91;10286322;28;20093;-60
2022/03/27 01:16:41;;;;;;;6.45;5.55;;;;;;;20.09;35.46;98026.81;10308260;28;20046;-60
2022/03/27 01:22:02;;;;;;;5.85;5.25;;;;;;;20.07;35.52;98021.72;10284731;28;20434;-59
2022/03/27 01:27:22;;;;;;;5.60;5.10;;;;;;;20.06;35.40;98020.09;10291970;28;20042;-60
2022/03/27 01:32:41;;;;;;;5.75;5.25;;;;;;;20.07;35.49;98015.47;10289475;28;20069;-60
2022/03/27 01:38:00;;;;;;;5.88;5.38;;;;;;;20.03;35.46;98018.00;10280248;28;20054;-60
2022/03/27 01:43:20;;;;;;;6.05;5.45;;;;;;;20.04;35.41;98018.78;10267478;28;20105;-60
2022/03/27 01:48:39;;;;;;;6.35;5.75;;;;;;;20.01;35.49;98024.78;10270011;28;20050;-60
2022/03/27 01:53:58;;;;;;;6.22;5.68;;;;;;;20.00;35.42;98015.88;10287420;28;20055;-60
2022/03/27 01:59:21;;;;;;;7.22;6.53;;;;;;;19.99;35.37;98005.34;10296505;28;20050;-60
2022/03/27 02:04:40;;;;;;;6.95;6.25;;;;;;;19.97;35.45;98018.38;10280138;28;20070;-60
2022/03/27 02:10:00;;;;;;;6.10;5.60;;;;;;;19.95;35.44;98013.25;10284842;28;20061;-60
2022/03/27 02:15:19;;;;;;;6.93;6.25;;;;;;;19.93;35.37;98021.69;10319129;28;20039;-60
2022/03/27 02:20:39;;;;;;;7.30;6.47;;;;;;;19.91;35.45;98015.75;10301241;28;20053;-59
2022/03/27 02:25:59;;;;;;;7.72;7.00;;;;;;;19.89;35.41;98017.94;10288463;28;20520;-60
2022/03/27 02:31:19;;;;;;;7.15;6.53;;;;;;;19.89;35.46;98023.34;10303647;28;20573;-60
2022/03/27 02:36:38;;;;;;;8.27;6.82;;;;;;;19.87;35.47;98033.66;10296865;28;20135;-60
2022/03/27 02:41:58;;;;;;;10.07;7.13;;;;;;;19.85;35.53;98027.75;10285512;28;20055;-60
2022/03/27 02:47:18;;;;;;;7.45;6.75;;;;;;;19.84;35.52;98028.88;10296148;28;20058;-60
2022/03/27 02:52:37;;;;;;;7.90;7.18;;;;;;;19.83;35.64;98035.34;10300303;28;20058;-59
2022/03/27 02:57:56;;;;;;;8.77;7.95;;;;;;;19.80;35.43;98029.72;10308548;28;20039;-60
2022/03/27 03:03:16;;;;;;;7.93;7.20;;;;;;;19.79;35.38;98028.94;10294638;28;20052;-60
2022/03/27 03:08:37;;;;;;;8.40;7.60;;;;;;;19.77;35.44;98041.16;10295134;28;20054;-60
2022/03/27 03:13:57;;;;;;;9.25;8.35;;;;;;;19.75;35.35;98038.75;10293594;28;20417;-60
2022/03/27 03:19:17;;;;;;;8.00;7.30;;;;;;;19.73;35.52;98032.81;10294905;28;20097;-60
2022/03/27 03:24:37;;;;;;;8.63;7.78;;;;;;;19.71;35.42;98032.28;10294823;28;20485;-60
2022/03/27 03:29:56;;;;;;;9.65;8.73;;;;;;;19.70;35.43;98041.50;10294778;28;20058;-60
2022/03/27 03:35:16;;;;;;;9.25;8.40;;;;;;;19.66;35.30;98037.75;10303481;28;20042;-60
2022/03/27 03:40:37;;;;;;;10.07;8.50;;;;;;;19.63;35.26;98041.88;10293981;28;20058;-60
2022/03/27 03:45:56;;;;;;;8.70;7.80;;;;;;;19.60;35.13;98039.78;10294001;28;20059;-60
2022/03/27 03:51:16;;;;;;;9.38;8.48;;;;;;;19.56;35.11;98047.66;10278541;28;20062;-60
2022/03/27 03:56:38;;;;;;;8.90;8.00;;;;;;;19.55;35.16;98039.84;10293466;28;20058;-60
2022/03/27 04:01:58;;;;;;;9.73;8.73;;;;;;;19.52;35.02;98043.13;10293710;28;20069;-60
2022/03/27 04:07:17;;;;;;;9.82;8.82;;;;;;;19.51;35.09;98057.75;10293812;28;20062;-60
2022/03/27 04:12:36;;;;;;;9.60;8.70;;;;;;;19.49;35.06;98057.22;10308598;28;20038;-60
2022/03/27 04:17:55;;;;;;;9.40;8.50;;;;;;;19.47;35.19;98054.81;10291052;28;20055;-60
2022/03/27 04:23:15;;;;;;;9.65;8.60;;;;;;;19.45;35.21;98056.22;10289150;28;20513;-60
2022/03/27 04:28:34;;;;;;;9.27;8.38;;;;;;;19.43;35.10;98064.59;10291679;28;20055;-60
2022/03/27 04:33:54;;;;;;;8.15;7.35;;;;;;;19.41;34.86;98066.00;10283435;28;20050;-60
2022/03/27 04:39:13;;;;;;;8.75;7.85;;;;;;;19.36;34.89;98064.16;10291261;28;20055;-60
2022/03/27 04:44:33;;;;;;;8.77;7.88;;;;;;;19.34;34.82;98071.75;10292172;28;20055;-60
2022/03/27 04:49:52;;;;;;;8.85;7.95;;;;;;;19.31;34.71;98075.06;10291091;28;20058;-60
2022/03/27 04:55:11;;;;;;;8.52;7.72;;;;;;;19.30;34.72;98084.25;10303541;28;20042;-60
2022/03/27 05:00:32;;;;;;;8.98;8.07;;;;;;;19.29;34.83;98077.25;10293646;28;20094;-60
2022/03/27 05:05:52;;;;;;;8.57;7.80;;;;;;;19.28;34.88;98071.00;10290604;28;20054;-60
2022/03/27 05:11:12;;;;;;;8.27;7.47;;;;;;;19.27;34.62;98082.94;10297693;28;20498;-60
2022/03/27 05:16:31;;;;;;;9.23;8.25;;;;;;;19.27;34.42;98096.44;10291769;28;20051;-60
2022/03/27 05:21:50;;;;;;;8.75;7.85;;;;;;;19.28;34.62;98097.25;10281465;28;20118;-60
2022/03/27 05:27:10;;;;;;;8.48;7.68;;;;;;;19.29;34.44;98096.97;10287289;28;20058;-60
2022/03/27 05:32:29;;;;;;;8.80;7.57;;;;;;;19.31;34.46;98099.38;10289924;28;20050;-60
2022/03/27 05:37:49;;;;;;;7.93;7.22;;;;;;;19.33;34.50;98099.88;10285762;28;20047;-60
2022/03/27 05:43:08;;;;;;;8.95;8.15;;;;;;;19.35;34.39;98103.91;10290482;28;20635;-60
2022/03/27 05:48:28;;;;;;;8.85;7.95;;;;;;;19.39;34.29;98098.72;10289818;28;20046;-60
2022/03/27 05:53:48;;;;;;;8.45;7.72;;;;;;;19.42;34.45;98102.72;10289972;28;20055;-60
2022/03/27 05:59:07;;;;;;;8.90;8.00;;;;;;;19.45;34.31;98105.66;10299378;28;20046;-60
2022/03/27 06:04:27;;;;;;;8.63;7.72;;;;;;;19.47;34.43;98100.75;10296779;28;20043;-60
2022/03/27 06:09:46;;;;;;;10.02;7.85;;;;;;;19.51;34.39;98114.50;10303906;28;20047;-60
2022/03/27 06:15:07;;;;;;;8.27;7.47;;;;;;;19.53;34.28;98102.28;10307084;28;20047;-60
2022/03/27 06:20:29;;;;;;;7.68;6.90;;;;;;;19.58;34.54;98116.81;10288041;28;20066;-60
2022/03/27 06:25:49;;;;;;;7.97;7.18;;;;;;;19.60;34.43;98110.06;10298950;28;20051;-60
2022/03/27 06:31:08;;;;;;;8.75;6.63;;;;;;;19.65;34.54;98107.25;10288068;28;20050;-60
2022/03/27 06:36:27;;;;;;;7.75;7.03;;;;;;;19.68;34.51;98108.56;10288837;28;20545;-60
2022/03/27 06:41:46;;;;;;;6.43;5.82;;;;;;;19.72;34.55;98115.06;10301036;28;20066;-60
2022/03/27 06:47:07;;;;;;;6.85;6.25;;;;;;;19.74;34.45;98120.97;10294516;28;20043;-61
2022/03/27 06:52:27;;;;;;;6.95;6.35;;;;;;;19.76;34.48;98124.19;10286902;28;20106;-60
2022/03/27 06:57:46;;;;;;;6.25;5.70;;;;;;;19.78;34.52;98119.28;10287257;28;20065;-60
2022/03/27 07:03:12;;;;;;;6.40;5.80;;;;;;;19.82;34.63;98130.31;10287731;28;20073;-60
2022/03/27 07:08:31;;;;;;;6.43;5.82;;;;;;;19.84;34.48;98120.81;10286874;28;20055;-60
2022/03/27 07:13:51;;;;;;;6.00;5.50;;;;;;;19.88;34.54;98121.81;10285832;28;20548;-60
2022/03/27 07:19:11;;;;;;;6.10;5.50;;;;;;;19.92;34.60;98119.34;10291125;28;20586;-61
2022/03/27 07:24:32;;;;;;;5.68;5.18;;;;;;;19.95;34.49;98122.25;10294892;28;20047;-60
2022/03/27 07:29:52;;;;;;;6.20;5.60;;;;;;;19.99;34.62;98129.78;10293189;28;20062;-60
2022/03/27 07:35:14;;;;;;;5.90;5.40;;;;;;;20.02;34.59;98129.19;10307259;28;20050;-60
2022/03/27 07:40:34;;;;;;;6.35;5.80;;;;;;;20.06;34.56;98132.91;10277377;28;20054;-60
2022/03/27 07:45:54;;;;;;;5.72;5.22;;;;;;;20.09;34.48;98127.72;10293438;28;20051;-60
2022/03/27 07:51:13;;;;;;;5.90;5.40;;;;;;;20.13;34.46;98130.63;10302150;28;20074;-60
2022/03/27 07:56:34;;;;;;;6.15;5.47;;;;;;;20.16;34.36;98127.34;10306345;28;20067;-60
2022/03/27 08:01:53;;;;;;;5.03;4.63;;;;;;;20.21;34.45;98116.44;10297058;28;20042;-60
2022/03/27 08:07:13;;;;;;;5.82;5.30;;;;;;;20.24;34.31;98115.81;10293167;28;20050;-60
2022/03/27 08:12:34;;;;;;;5.38;4.88;;;;;;;20.29;34.39;98126.56;10311537;28;20047;-61
2022/03/27 08:17:54;;;;;;;5.25;4.85;;;;;;;20.31;34.28;98124.38;10281248;28;20058;-60
2022/03/27 08:23:14;;;;;;;5.90;5.35;;;;;;;20.36;34.39;98126.19;10306031;28;20567;-60
2022/03/27 08:28:34;;;;;;;5.40;4.90;;;;;;;20.40;34.20;98123.69;10287075;28;20069;-60
2022/03/27 08:33:53;;;;;;;6.50;5.88;;;;;;;20.44;34.29;98122.00;10292564;28;20043;-61
2022/03/27 08:39:13;;;;;;;5.95;5.35;;;;;;;20.46;34.20;98126.00;10292370;28;20753;-61
2022/03/27 08:44:35;;;;;;;5.90;5.30;;;;;;;20.48;34.15;98123.81;10287907;28;20066;-60
2022/03/27 08:50:00;;;;;;;5.63;4.97;;;;;;;20.49;34.16;98138.94;10269331;28;20066;-60
2022/03/27 08:55:27;;;;;;;5.78;5.18;;;;;;;20.52;34.10;98138.38;10290985;28;20054;-61
2022/03/27 09:00:47;;;;;;;5.85;5.25;;;;;;;20.56;34.07;98135.84;10284336;28;20050;-60
2022/03/27 09:06:08;;;;;;;5.78;4.97;;;;;;;20.60;33.98;98130.66;10290544;28;20043;-61
2022/03/27 09:11:30;;;;;;;5.60;5.10;;;;;;;20.62;34.02;98136.59;10310267;28;20046;-60
2022/03/27 09:17:06;;;;;;;6.57;4.93;;;;;;;20.63;33.92;98149.84;10290027;28;20050;-58
2022/03/27 09:22:29;;;;;;;5.15;4.65;;;;;;;20.66;34.20;98141.13;10288344;28;20433;-57
2022/03/27 09:27:56;;;;;;;27.40;13.82;;;;;;;20.69;35.52;98147.84;10287462;28;20073;-59
2022/03/27 09:33:48;;;;;;;41.70;22.60;;;;;;;20.72;36.06;98142.63;10289390;28;20046;-60
2022/03/27 09:39:15;;;;;;;52.10;26.05;;;;;;;20.75;35.91;98138.50;10261226;28;20055;-59
2022/03/27 09:44:36;;;;;;;36.22;20.25;;;;;;;20.77;36.20;98139.03;10302165;28;20134;-58
2022/03/27 09:49:55;;;;;;;33.53;18.42;;;;;;;20.77;36.57;98128.19;10285614;28;20054;-58
2022/03/27 09:55:16;;;;;;;29.20;16.83;;;;;;;20.79;36.29;98125.19;10285733;28;20054;-59
2022/03/27 10:00:36;;;;;;;25.27;14.00;;;;;;;20.80;36.03;98119.47;10298654;28;20041;-58
2022/03/27 10:05:55;;;;;;;24.08;14.43;;;;;;;20.81;35.79;98125.69;10296491;28;20042;-58
2022/03/27 10:11:18;;;;;;;21.98;12.35;;;;;;;20.81;35.47;98121.06;10299246;28;20058;-58
2022/03/27 10:16:47;;;;;;;14.73;10.38;;;;;;;20.82;35.21;98103.72;10285325;28;20082;-60
2022/03/27 10:22:08;;;;;;;14.00;8.52;;;;;;;20.83;34.06;98109.94;10284502;28;20066;-59
2022/03/27 10:27:30;;;;;;;10.05;7.55;;;;;;;20.83;33.74;98099.09;10314886;28;20061;-59
2022/03/27 10:32:49;;;;;;;10.82;7.07;;;;;;;20.83;33.79;98093.69;10294399;28;20046;-59
2022/03/27 10:38:20;;;;;;;8.60;6.07;;;;;;;20.82;33.69;98102.94;10278201;28;20573;-59
2022/03/27 10:43:48;;;;;;;10.90;6.10;;;;;;;20.81;33.66;98087.78;10304178;28;20054;-59
2022/03/27 10:49:13;;;;;;;8.20;5.40;;;;;;;20.79;33.59;98084.56;10284421;28;20602;-59
2022/03/27 10:54:59;;;;;;;7.70;5.25;;;;;;;20.82;33.48;98089.38;10277096;28;20536;-59
2022/03/27 11:00:37;;;;;;;6.15;4.80;;;;;;;20.81;33.48;98074.22;10263862;28;20102;-59
2022/03/27 11:06:00;;;;;;;6.87;4.60;;;;;;;20.81;33.31;98077.72;10294632;28;20054;-59
2022/03/27 11:11:38;;;;;;;5.82;4.32;;;;;;;20.80;33.19;98076.13;10283856;28;20034;-59
2022/03/27 11:17:04;;;;;;;5.27;4.30;;;;;;;20.80;33.24;98075.34;10299761;28;20441;-59
2022/03/27 11:22:51;;;;;;;5.15;4.10;;;;;;;20.80;32.72;98073.44;10293008;28;20059;-60
2022/03/27 11:28:12;;;;;;;5.72;4.10;;;;;;;20.79;32.87;98068.31;10290248;28;20055;-60
2022/03/27 11:33:31;;;;;;;4.30;3.85;;;;;;;20.78;32.98;98063.97;10293022;28;20047;-60
2022/03/27 11:39:08;;;;;;;4.05;3.55;;;;;;;20.78;33.21;98055.84;10290528;28;20054;-60
2022/03/27 11:50:18;;;;;;;4.45;3.78;;;;;;;20.74;33.12;98037.53;10290230;28;20058;-61
2022/03/27 11:55:39;;;;;;;3.42;3.13;;;;;;;20.76;33.28;98049.94;10293949;28;20494;-60
2022/03/27 12:01:03;;;;;;;4.32;3.63;;;;;;;20.76;33.05;98036.41;10290675;28;20428;-60
2022/03/27 12:06:27;;;;;;;4.50;3.20;;;;;;;20.73;33.01;98032.41;10288072;28;20429;-60
2022/03/27 12:11:46;;;;;;;3.65;3.33;;;;;;;20.72;32.72;98023.47;10298116;28;20038;-60
2022/03/27 12:17:09;;;;;;;3.53;3.15;;;;;;;20.70;32.67;98017.56;10293156;28;20532;-59
2022/03/27 12:22:53;;;;;;;3.20;2.85;;;;;;;20.70;33.13;98025.69;10317115;28;20524;-59
2022/03/27 12:33:52;;;;;;;3.67;3.17;;;;;;;20.68;33.33;98006.25;10291530;28;20043;-59
2022/03/27 12:39:13;;;;;;;3.80;3.40;;;;;;;20.67;33.09;98007.31;10298981;28;20986;-59
2022/03/27 12:44:51;;;;;;;4.95;3.75;;;;;;;20.66;31.64;97997.63;10312634;28;20505;-60
2022/03/27 12:50:13;;;;;;;6.93;4.00;;;;;;;20.66;31.48;97992.19;10288997;28;20054;-59
2022/03/27 12:56:05;;;;;;;5.57;4.18;;;;;;;20.64;31.36;97991.72;10290300;28;20366;-58
2022/03/27 13:01:24;;;;;;;7.68;3.35;;;;;;;20.64;32.21;97985.47;10305410;28;20424;-57
2022/03/27 13:06:51;;;;;;;4.45;3.72;;;;;;;20.62;31.97;97974.97;10304612;28;20054;-57
2022/03/27 13:12:12;;;;;;;5.80;3.88;;;;;;;20.60;31.67;97960.09;10298147;28;20047;-57
2022/03/27 13:17:31;;;;;;;4.03;3.55;;;;;;;20.59;31.19;97959.31;10290538;28;20133;-57
2022/03/27 13:22:51;;;;;;;5.57;3.78;;;;;;;20.57;30.88;97947.16;10296194;28;20054;-57
2022/03/27 13:28:10;;;;;;;4.95;4.45;;;;;;;20.55;30.14;97942.03;10302315;28;20047;-56
2022/03/27 13:33:30;;;;;;;3.90;3.30;;;;;;;20.54;30.74;97935.00;10277143;28;20049;-58
2022/03/27 13:38:49;;;;;;;4.00;3.63;;;;;;;20.53;30.52;97933.41;10296086;28;20050;-58
2022/03/27 13:44:09;;;;;;;4.38;3.75;;;;;;;20.50;29.99;97925.91;10288616;28;20058;-57
2022/03/27 13:49:29;;;;;;;5.22;3.80;;;;;;;20.49;29.82;97921.59;10285949;28;20081;-57
2022/03/27 13:54:48;;;;;;;4.40;4.00;;;;;;;20.47;29.60;97918.41;10269932;28;20062;-57
2022/03/27 14:00:08;;;;;;;4.53;4.13;;;;;;;20.45;29.37;97917.91;10276042;28;20054;-57
2022/03/27 14:05:30;;;;;;;4.90;3.80;;;;;;;20.44;29.62;97908.16;10276899;28;20053;-58
2022/03/27 14:10:51;;;;;;;4.90;4.35;;;;;;;20.43;28.84;97906.56;10298281;28;20058;-57
2022/03/27 14:16:10;;;;;;;4.80;4.30;;;;;;;20.41;29.43;97904.16;10292169;28;20051;-58
2022/03/27 14:21:30;;;;;;;3.88;3.30;;;;;;;20.40;29.60;97907.16;10288293;28;20055;-57
2022/03/27 14:26:49;;;;;;;4.10;3.60;;;;;;;20.38;29.75;97898.53;10300504;28;20054;-57
2022/03/27 14:32:09;;;;;;;4.32;3.90;;;;;;;20.35;29.41;97895.34;10287336;28;20676;-57
2022/03/27 14:37:28;;;;;;;4.18;3.67;;;;;;;20.35;29.74;97889.94;10288378;28;20055;-57
2022/03/27 14:42:48;;;;;;;3.58;3.28;;;;;;;20.33;29.43;97888.63;10281043;28;20051;-58
2022/03/27 14:48:08;;;;;;;4.05;3.65;;;;;;;20.32;29.74;97893.22;10274704;28;20066;-57
2022/03/27 14:53:31;;;;;;;3.67;3.00;;;;;;;20.30;29.35;97886.53;10294175;28;20051;-56
2022/03/27 14:58:51;;;;;;;5.35;4.00;;;;;;;20.28;29.32;97878.72;10291894;28;20078;-58
2022/03/27 15:04:11;;;;;;;3.55;3.13;;;;;;;20.28;29.33;97884.13;10287733;28;20552;-57
2022/03/27 15:09:31;;;;;;;4.03;3.53;;;;;;;20.26;29.19;97872.78;10285333;28;20058;-56
2022/03/27 15:14:50;;;;;;;3.65;3.35;;;;;;;20.26;29.45;97867.38;10296922;28;20055;-58
2022/03/27 15:20:12;;;;;;;5.05;3.50;;;;;;;20.24;29.30;97864.19;10309023;28;20045;-57
2022/03/27 15:25:31;;;;;;;3.25;2.90;;;;;;;20.23;28.93;97853.66;11145479;23;20058;-57
2022/03/27 15:30:52;;;;;;;3.22;2.92;;;;;;;20.22;29.01;97847.44;10309623;28;20058;-58
2022/03/27 15:36:12;;;;;;;4.47;3.08;;;;;;;20.22;29.10;97842.03;10308934;28;20062;-58
2022/03/27 15:41:32;;;;;;;4.43;3.20;;;;;;;20.22;28.76;97846.66;10309309;28;20402;-57
2022/03/27 15:46:51;;;;;;;5.13;3.00;;;;;;;20.21;29.17;97840.44;10314501;28;20054;-58
2022/03/27 15:52:11;;;;;;;4.63;2.60;;;;;;;20.19;29.17;97839.97;10326236;28;20121;-59
2022/03/27 15:57:31;;;;;;;3.30;2.70;;;;;;;20.18;29.48;97841.03;10329395;28;20059;-58
2022/03/27 16:02:51;;;;;;;2.72;2.53;;;;;;;20.16;29.59;97840.53;10313639;28;20130;-58
2022/03/27 16:08:12;;;;;;;2.65;2.40;;;;;;;20.15;29.71;97837.06;10307836;28;20058;-58
2022/03/27 16:13:35;;;;;;;3.05;2.80;;;;;;;20.14;29.87;97840.06;10328759;28;20050;-58
2022/03/27 16:18:57;;;;;;;3.17;2.88;;;;;;;20.13;29.89;97843.84;10317108;28;20171;-59
2022/03/27 16:24:16;;;;;;;3.20;2.90;;;;;;;20.10;30.00;97837.16;10305565;28;20065;-58
2022/03/27 16:29:36;;;;;;;3.28;2.97;;;;;;;20.10;30.07;97828.22;10287827;28;20057;-58
2022/03/27 16:34:55;;;;;;;3.72;3.25;;;;;;;20.08;29.53;97822.31;10295659;28;20129;-58
2022/03/27 16:40:16;;;;;;;3.58;3.05;;;;;;;20.04;29.09;97826.75;10281303;28;20062;-57
2022/03/27 16:45:35;;;;;;;4.63;3.03;;;;;;;20.00;28.96;97823.03;10286719;28;20453;-57
2022/03/27 16:50:56;;;;;;;5.50;3.30;;;;;;;19.97;29.15;97819.03;10285576;28;20079;-58
2022/03/27 16:56:16;;;;;;;3.15;2.85;;;;;;;19.93;29.19;97816.13;10282474;28;20478;-58
2022/03/27 17:01:35;;;;;;;4.82;3.17;;;;;;;19.89;29.42;97817.81;10279712;28;20429;-58
2022/03/27 17:06:55;;;;;;;4.82;3.05;;;;;;;19.89;29.80;97817.03;10300512;28;20043;-57
2022/03/27 17:12:15;;;;;;;5.43;3.08;;;;;;;19.88;30.14;97820.84;10287042;28;20097;-57
2022/03/27 17:17:35;;;;;;;6.15;2.80;;;;;;;19.86;30.49;97823.84;10304420;28;20054;-58
2022/03/27 17:22:56;;;;;;;4.25;2.50;;;;;;;19.85;30.40;97816.81;10286741;28;20109;-57
2022/03/27 17:28:16;;;;;;;4.05;2.60;;;;;;;19.86;30.40;97820.34;10292503;28;20038;-58
2022/03/27 17:33:36;;;;;;;3.33;2.70;;;;;;;19.86;30.30;97817.66;10293153;28;20039;-58
2022/03/27 17:38:55;;;;;;;3.72;2.80;;;;;;;19.84;30.39;97819.84;10296629;28;20054;-57
2022/03/27 17:44:15;;;;;;;4.78;3.05;;;;;;;19.85;30.17;97827.63;10277494;28;20053;-57
2022/03/27 17:49:35;;;;;;;3.83;2.95;;;;;;;19.84;30.34;97833.38;10289706;28;20117;-56
2022/03/27 17:54:55;;;;;;;3.17;2.88;;;;;;;19.85;30.14;97832.25;10289281;28;20051;-58
2022/03/27 18:00:15;;;;;;;3.40;2.83;;;;;;;19.84;30.24;97834.16;10286925;28;20086;-56
2022/03/27 18:05:38;;;;;;;4.68;2.90;;;;;;;19.84;30.21;97831.47;10285635;28;20117;-58
2022/03/27 18:10:58;;;;;;;4.43;3.10;;;;;;;19.84;30.09;97839.56;10290142;28;20058;-56
2022/03/27 18:16:20;;;;;;;3.33;2.88;;;;;;;19.87;30.04;97849.78;10279402;28;20054;-57
2022/03/27 18:21:39;;;;;;;5.28;4.35;;;;;;;19.86;30.11;97852.81;10276688;28;20051;-57
2022/03/27 18:27:00;;;;;;;5.82;4.28;;;;;;;19.87;30.04;97852.47;10280464;28;20057;-57
2022/03/27 18:32:20;;;;;;;4.40;3.60;;;;;;;19.89;30.13;97857.59;10283826;28;20038;-58
2022/03/27 18:37:39;;;;;;;4.25;3.85;;;;;;;19.90;30.22;97860.00;10287161;28;20054;-57
2022/03/27 18:42:59;;;;;;;4.57;3.80;;;;;;;19.90;29.89;97860.00;10284827;28;20508;-57
2022/03/27 18:48:20;;;;;;;6.93;4.55;;;;;;;19.92;29.85;97857.00;10286670;28;20050;-58
2022/03/27 18:53:39;;;;;;;7.10;5.03;;;;;;;19.92;28.49;97859.72;10281839;28;20058;-57
2022/03/27 18:59:01;;;;;;;3.92;3.30;;;;;;;19.87;29.86;97855.19;10297006;28;20039;-58
2022/03/27 19:04:21;;;;;;;6.03;3.47;;;;;;;19.91;30.34;97867.00;10284582;28;20046;-57
2022/03/27 19:09:42;;;;;;;4.47;3.70;;;;;;;19.97;30.65;97866.91;10276864;28;20054;-57
2022/03/27 19:15:03;;;;;;;4.60;3.33;;;;;;;20.00;30.96;97860.91;10285733;28;20117;-58
2022/03/27 19:20:27;;;;;;;5.85;3.42;;;;;;;20.05;31.20;97864.31;10277857;28;20137;-58
2022/03/27 19:25:48;;;;;;;4.53;3.05;;;;;;;20.09;31.85;97872.59;10280618;28;20051;-59
2022/03/27 19:31:12;;;;;;;4.05;3.17;;;;;;;20.13;32.27;97865.50;10292482;28;20406;-58
2022/03/27 19:36:31;;;;;;;5.85;3.05;;;;;;;20.18;32.59;97859.97;10279303;28;20498;-58
2022/03/27 19:41:52;;;;;;;4.95;2.95;;;;;;;20.21;32.85;97862.09;10293149;28;20413;-54
2022/03/27 19:47:14;;;;;;;5.20;3.35;;;;;;;20.21;33.09;97862.09;10293334;28;20054;-55
2022/03/27 19:52:34;;;;;;;4.68;3.05;;;;;;;20.25;33.33;97868.50;10304137;28;20133;-58
2022/03/27 19:57:54;;;;;;;6.30;3.05;;;;;;;20.27;33.44;97869.00;10300556;28;20043;-58
2022/03/27 20:03:14;;;;;;;8.90;3.20;;;;;;;20.31;33.55;97861.88;10298953;28;20078;-59
2022/03/27 20:08:33;;;;;;;3.58;2.85;;;;;;;20.34;33.80;97860.47;10293032;28;20393;-58
2022/03/27 20:13:53;;;;;;;6.53;2.85;;;;;;;20.35;33.79;97865.56;10279108;28;20058;-59
2022/03/27 20:19:12;;;;;;;5.88;3.58;;;;;;;20.38;33.96;97863.38;10285738;28;20057;-58
2022/03/27 20:24:32;;;;;;;6.43;3.13;;;;;;;20.37;34.10;97859.88;10290102;28;20055;-58
2022/03/27 20:29:52;;;;;;;3.22;2.83;;;;;;;20.40;34.17;97855.75;10290656;28;20042;-58
2022/03/27 20:35:11;;;;;;;4.45;2.90;;;;;;;20.39;34.32;97854.94;10299859;28;20046;-58
2022/03/27 20:40:32;;;;;;;4.47;2.90;;;;;;;20.41;34.47;97854.66;10290159;28;20066;-58
2022/03/27 20:45:52;;;;;;;4.13;2.83;;;;;;;20.42;34.43;97848.91;10294850;28;20046;-58
2022/03/27 20:51:11;;;;;;;5.05;3.00;;;;;;;20.43;34.66;97847.81;10289604;28;20409;-57
2022/03/27 20:56:31;;;;;;;4.63;2.78;;;;;;;20.43;34.61;97847.81;10300815;28;20046;-59
2022/03/27 21:01:51;;;;;;;7.45;2.88;;;;;;;20.43;34.81;97841.63;10288051;28;20054;-59
2022/03/27 21:07:10;;;;;;;4.60;2.80;;;;;;;20.43;34.83;97836.19;10287002;28;20101;-60
2022/03/27 21:12:30;;;;;;;4.18;3.10;;;;;;;20.43;34.84;97839.69;10288817;28;20051;-60
2022/03/27 21:17:50;;;;;;;4.25;2.83;;;;;;;20.46;34.85;97839.06;10297290;28;20047;-59
2022/03/27 21:23:09;;;;;;;4.03;2.75;;;;;;;20.45;34.87;97836.69;10301383;28;20047;-59
2022/03/27 21:28:29;;;;;;;8.20;3.08;;;;;;;20.47;35.10;97837.97;10285897;28;20058;-59
2022/03/27 21:33:52;;;;;;;4.20;2.75;;;;;;;20.46;35.11;97825.53;10287639;28;20056;-59
2022/03/27 21:39:12;;;;;;;6.55;3.20;;;;;;;20.47;35.09;97835.28;10289789;28;20058;-60
2022/03/27 21:44:32;;;;;;;4.38;2.70;;;;;;;20.49;35.27;97834.97;10279900;28;20409;-59
2022/03/27 21:49:53;;;;;;;4.57;2.60;;;;;;;20.49;35.00;97837.69;10297717;28;20089;-59
2022/03/27 21:55:13;;;;;;;4.13;2.90;;;;;;;20.50;35.02;97833.84;10282928;28;20133;-59
2022/03/27 22:00:44;;;;;;;5.43;2.63;;;;;;;20.49;35.30;97832.28;10284004;28;20054;-58
2022/03/27 22:06:04;;;;;;;4.32;2.92;;;;;;;20.48;35.12;97833.38;10296214;28;20481;-59
2022/03/27 22:11:24;;;;;;;4.35;2.70;;;;;;;20.47;35.24;97826.38;10285123;28;20175;-59
2022/03/27 22:16:43;;;;;;;4.70;2.70;;;;;;;20.47;35.15;97832.56;10279306;28;20051;-59
2022/03/27 22:22:02;;;;;;;6.47;2.92;;;;;;;20.48;35.13;97833.38;10280788;28;20058;-59
2022/03/27 22:27:22;;;;;;;3.88;3.00;;;;;;;20.46;35.17;97828.25;10279721;28;20387;-59
2022/03/27 22:32:42;;;;;;;4.93;2.85;;;;;;;20.45;35.16;97823.16;10274956;28;20054;-59
2022/03/27 22:38:01;;;;;;;9.63;3.10;;;;;;;20.45;35.16;97823.16;10281604;28;20493;-59
2022/03/27 22:43:22;;;;;;;3.83;2.72;;;;;;;20.44;35.16;97811.50;10285036;28;20564;-59
2022/03/27 22:48:41;;;;;;;4.75;2.88;;;;;;;20.43;35.16;97811.84;10288868;28;20058;-59
2022/03/27 22:54:02;;;;;;;3.90;2.90;;;;;;;20.42;35.20;97811.03;10303790;28;20497;-59
2022/03/27 22:59:21;;;;;;;3.55;2.90;;;;;;;20.43;35.19;97809.13;10290705;28;20133;-59
2022/03/27 23:04:41;;;;;;;3.05;2.55;;;;;;;20.41;35.23;97803.22;10299460;28;20047;-59
2022/03/27 23:10:00;;;;;;;3.13;2.55;;;;;;;20.40;35.33;97798.91;10291350;28;20072;-59
2022/03/27 23:15:20;;;;;;;3.42;2.72;;;;;;;20.40;35.51;97790.78;10302627;28;20533;-59
2022/03/27 23:20:39;;;;;;;4.28;2.85;;;;;;;20.40;35.30;97796.19;10291497;28;20421;-58
2022/03/27 23:25:59;;;;;;;3.05;2.55;;;;;;;20.38;35.24;97796.50;10249479;28;1116797;-59
2022/03/27 23:31:18;;;;;;;3.78;2.75;;;;;;;20.38;35.27;97793.00;10293214;28;20054;-59
2022/03/27 23:36:38;;;;;;;3.80;2.60;;;;;;;20.37;35.38;97796.81;10291687;28;20047;-58
2022/03/27 23:41:58;;;;;;;4.05;2.47;;;;;;;20.35;35.29;97792.50;10294178;28;20084;-59
2022/03/27 23:47:17;;;;;;;5.25;2.65;;;;;;;20.34;35.39;97785.47;10290581;28;20101;-59
2022/03/27 23:52:41;;;;;;;2.80;2.47;;;;;;;20.33;35.53;97786.59;10290778;28;20413;-59
2022/03/27 23:58:01;;;;;;;2.88;2.25;;;;;;;20.32;35.36;97782.28;10303975;28;20047;-59
